sensor_id;sensor_type;location;lat;lon;timestamp;temperature;humidity
64499;SHT31;51087;55.718;21.122;2022-10-16T00:01:18;13.06;99.99
64499;SHT31;51087;55.718;21.122;2022-10-16T00:03:45;13.13;99.99
64499;SHT31;51087;55.718;21.122;2022-10-16T00:06:11;13.19;99.99
64499;SHT31;51087;55.718;21.122;2022-10-16T00:08:38;13.22;99.99
64499;SHT31;51087;55.718;21.122;2022-10-16T00:11:10;13.35;99.63
64499;SHT31;51087;55.718;21.122;2022-10-16T00:13:37;13.42;99.39
64499;SHT31;51087;55.718;21.122;2022-10-16T00:16:03;13.44;99.16
64499;SHT31;51087;55.718;21.122;2022-10-16T00:18:29;13.46;99.09
64499;SHT31;51087;55.718;21.122;2022-10-16T00:20:55;13.42;99.19
64499;SHT31;51087;55.718;21.122;2022-10-16T00:23:21;13.40;99.28
64499;SHT31;51087;55.718;21.122;2022-10-16T00:25:57;13.40;99.24
64499;SHT31;51087;55.718;21.122;2022-10-16T00:28:23;13.43;99.08
64499;SHT31;51087;55.718;21.122;2022-10-16T00:30:48;13.40;99.09
64499;SHT31;51087;55.718;21.122;2022-10-16T00:33:13;13.40;99.15
64499;SHT31;51087;55.718;21.122;2022-10-16T00:35:39;13.40;99.28
64499;SHT31;51087;55.718;21.122;2022-10-16T00:38:04;13.39;99.38
64499;SHT31;51087;55.718;21.122;2022-10-16T00:40:30;13.30;99.55
64499;SHT31;51087;55.718;21.122;2022-10-16T00:42:57;13.29;99.68
64499;SHT31;51087;55.718;21.122;2022-10-16T00:45:22;13.26;99.76
64499;SHT31;51087;55.718;21.122;2022-10-16T00:47:49;13.19;99.82
64499;SHT31;51087;55.718;21.122;2022-10-16T00:50:31;13.08;99.99
64499;SHT31;51087;55.718;21.122;2022-10-16T00:52:58;13.10;99.99
64499;SHT31;51087;55.718;21.122;2022-10-16T00:55:25;13.01;99.99
64499;SHT31;51087;55.718;21.122;2022-10-16T00:57:51;12.98;99.99
64499;SHT31;51087;55.718;21.122;2022-10-16T01:00:23;12.96;99.99
64499;SHT31;51087;55.718;21.122;2022-10-16T01:05:55;12.87;99.99
64499;SHT31;51087;55.718;21.122;2022-10-16T01:08:39;12.84;99.99
64499;SHT31;51087;55.718;21.122;2022-10-16T01:11:19;12.87;99.99
64499;SHT31;51087;55.718;21.122;2022-10-16T01:13:52;12.91;99.99
64499;SHT31;51087;55.718;21.122;2022-10-16T01:16:38;12.82;99.99
64499;SHT31;51087;55.718;21.122;2022-10-16T01:19:26;12.80;99.99
64499;SHT31;51087;55.718;21.122;2022-10-16T01:21:58;12.72;99.99
64499;SHT31;51087;55.718;21.122;2022-10-16T01:24:40;12.72;99.99
64499;SHT31;51087;55.718;21.122;2022-10-16T01:32:19;12.72;99.99
64499;SHT31;51087;55.718;21.122;2022-10-16T01:34:53;12.72;99.99
64499;SHT31;51087;55.718;21.122;2022-10-16T01:38:14;12.74;99.99
64499;SHT31;51087;55.718;21.122;2022-10-16T01:40:15;12.68;99.99
64499;SHT31;51087;55.718;21.122;2022-10-16T01:42:46;12.64;99.99
64499;SHT31;51087;55.718;21.122;2022-10-16T01:45:14;12.69;99.99
64499;SHT31;51087;55.718;21.122;2022-10-16T01:47:41;12.69;99.99
64499;SHT31;51087;55.718;21.122;2022-10-16T01:50:09;12.69;99.99
64499;SHT31;51087;55.718;21.122;2022-10-16T01:52:37;12.63;99.99
64499;SHT31;51087;55.718;21.122;2022-10-16T01:55:06;12.69;99.99
64499;SHT31;51087;55.718;21.122;2022-10-16T01:57:34;12.71;99.99
64499;SHT31;51087;55.718;21.122;2022-10-16T02:00:05;12.72;99.99
64499;SHT31;51087;55.718;21.122;2022-10-16T02:02:32;12.72;99.99
64499;SHT31;51087;55.718;21.122;2022-10-16T02:05:03;12.78;99.99
64499;SHT31;51087;55.718;21.122;2022-10-16T02:07:30;12.75;99.99
64499;SHT31;51087;55.718;21.122;2022-10-16T02:09:55;12.74;99.99
64499;SHT31;51087;55.718;21.122;2022-10-16T02:12:28;12.68;99.99
64499;SHT31;51087;55.718;21.122;2022-10-16T02:14:55;12.65;99.99
64499;SHT31;51087;55.718;21.122;2022-10-16T02:17:22;12.60;99.99
64499;SHT31;51087;55.718;21.122;2022-10-16T02:19:50;12.58;99.99
64499;SHT31;51087;55.718;21.122;2022-10-16T02:22:44;12.55;99.99
64499;SHT31;51087;55.718;21.122;2022-10-16T02:25:22;12.61;99.99
64499;SHT31;51087;55.718;21.122;2022-10-16T02:27:57;12.54;99.99
64499;SHT31;51087;55.718;21.122;2022-10-16T02:32:51;12.51;99.99
64499;SHT31;51087;55.718;21.122;2022-10-16T02:35:19;12.54;99.99
64499;SHT31;51087;55.718;21.122;2022-10-16T02:37:46;12.57;99.99
64499;SHT31;51087;55.718;21.122;2022-10-16T02:40:12;12.53;99.99
64499;SHT31;51087;55.718;21.122;2022-10-16T02:42:39;12.53;99.99
64499;SHT31;51087;55.718;21.122;2022-10-16T02:45:06;12.53;99.99
64499;SHT31;51087;55.718;21.122;2022-10-16T02:47:32;12.53;99.99
64499;SHT31;51087;55.718;21.122;2022-10-16T02:49:58;12.55;99.99
64499;SHT31;51087;55.718;21.122;2022-10-16T02:52:24;12.48;99.99
64499;SHT31;51087;55.718;21.122;2022-10-16T02:54:50;12.51;99.99
64499;SHT31;51087;55.718;21.122;2022-10-16T02:57:15;12.48;99.99
64499;SHT31;51087;55.718;21.122;2022-10-16T02:59:41;12.50;99.99
64499;SHT31;51087;55.718;21.122;2022-10-16T03:02:06;12.51;99.99
64499;SHT31;51087;55.718;21.122;2022-10-16T03:04:32;12.50;99.99
64499;SHT31;51087;55.718;21.122;2022-10-16T03:06:57;12.45;99.99
64499;SHT31;51087;55.718;21.122;2022-10-16T03:09:22;12.37;99.99
64499;SHT31;51087;55.718;21.122;2022-10-16T03:11:48;12.36;99.99
64499;SHT31;51087;55.718;21.122;2022-10-16T03:14:13;12.30;99.99
64499;SHT31;51087;55.718;21.122;2022-10-16T03:16:39;12.32;99.99
64499;SHT31;51087;55.718;21.122;2022-10-16T03:19:04;12.29;99.99
64499;SHT31;51087;55.718;21.122;2022-10-16T03:21:30;12.33;99.99
64499;SHT31;51087;55.718;21.122;2022-10-16T03:23:55;12.36;99.99
64499;SHT31;51087;55.718;21.122;2022-10-16T03:26:21;12.34;99.99
64499;SHT31;51087;55.718;21.122;2022-10-16T03:28:46;12.32;99.99
64499;SHT31;51087;55.718;21.122;2022-10-16T03:31:11;12.32;99.99
64499;SHT31;51087;55.718;21.122;2022-10-16T03:33:37;12.33;99.99
64499;SHT31;51087;55.718;21.122;2022-10-16T03:36:02;12.36;99.99
64499;SHT31;51087;55.718;21.122;2022-10-16T03:38:28;12.33;99.99
64499;SHT31;51087;55.718;21.122;2022-10-16T03:40:53;12.27;99.99
64499;SHT31;51087;55.718;21.122;2022-10-16T03:43:19;12.29;99.99
64499;SHT31;51087;55.718;21.122;2022-10-16T03:45:44;12.33;99.99
64499;SHT31;51087;55.718;21.122;2022-10-16T03:48:10;12.37;99.99
64499;SHT31;51087;55.718;21.122;2022-10-16T03:50:35;12.38;99.99
64499;SHT31;51087;55.718;21.122;2022-10-16T03:53:01;12.38;99.99
64499;SHT31;51087;55.718;21.122;2022-10-16T03:55:26;12.34;99.99
64499;SHT31;51087;55.718;21.122;2022-10-16T03:57:52;12.37;99.99
64499;SHT31;51087;55.718;21.122;2022-10-16T04:00:17;12.40;99.99
64499;SHT31;51087;55.718;21.122;2022-10-16T04:02:43;12.43;99.99
64499;SHT31;51087;55.718;21.122;2022-10-16T04:05:08;12.47;99.99
64499;SHT31;51087;55.718;21.122;2022-10-16T04:07:34;12.45;99.99
64499;SHT31;51087;55.718;21.122;2022-10-16T04:09:59;12.47;99.99
64499;SHT31;51087;55.718;21.122;2022-10-16T04:12:26;12.53;99.99
64499;SHT31;51087;55.718;21.122;2022-10-16T04:14:52;12.55;99.99
64499;SHT31;51087;55.718;21.122;2022-10-16T04:17:17;12.57;99.99
64499;SHT31;51087;55.718;21.122;2022-10-16T04:19:42;12.54;99.99
64499;SHT31;51087;55.718;21.122;2022-10-16T04:22:08;12.51;99.99
64499;SHT31;51087;55.718;21.122;2022-10-16T04:24:33;12.50;99.99
64499;SHT31;51087;55.718;21.122;2022-10-16T04:26:59;12.48;99.99
64499;SHT31;51087;55.718;21.122;2022-10-16T04:29:24;12.48;99.99
64499;SHT31;51087;55.718;21.122;2022-10-16T04:31:50;12.44;99.99
64499;SHT31;51087;55.718;21.122;2022-10-16T04:34:15;12.47;99.99
64499;SHT31;51087;55.718;21.122;2022-10-16T04:36:41;12.51;99.99
64499;SHT31;51087;55.718;21.122;2022-10-16T04:39:06;12.51;99.99
64499;SHT31;51087;55.718;21.122;2022-10-16T04:41:31;12.57;99.99
64499;SHT31;51087;55.718;21.122;2022-10-16T04:43:57;12.57;99.99
64499;SHT31;51087;55.718;21.122;2022-10-16T04:46:22;12.58;99.99
64499;SHT31;51087;55.718;21.122;2022-10-16T04:48:48;12.60;99.99
64499;SHT31;51087;55.718;21.122;2022-10-16T04:51:13;12.61;99.99
64499;SHT31;51087;55.718;21.122;2022-10-16T04:53:39;12.69;99.99
64499;SHT31;51087;55.718;21.122;2022-10-16T04:56:04;12.69;99.99
64499;SHT31;51087;55.718;21.122;2022-10-16T04:58:30;12.71;99.99
64499;SHT31;51087;55.718;21.122;2022-10-16T05:00:55;12.77;99.99
64499;SHT31;51087;55.718;21.122;2022-10-16T05:03:21;12.77;99.99
64499;SHT31;51087;55.718;21.122;2022-10-16T05:05:46;12.77;99.99
64499;SHT31;51087;55.718;21.122;2022-10-16T05:08:16;12.78;99.99
64499;SHT31;51087;55.718;21.122;2022-10-16T05:10:42;12.82;99.99
64499;SHT31;51087;55.718;21.122;2022-10-16T05:13:08;12.85;99.99
64499;SHT31;51087;55.718;21.122;2022-10-16T05:15:34;12.89;99.99
64499;SHT31;51087;55.718;21.122;2022-10-16T05:17:59;12.88;99.99
64499;SHT31;51087;55.718;21.122;2022-10-16T05:20:25;12.95;99.99
64499;SHT31;51087;55.718;21.122;2022-10-16T05:22:50;12.93;99.99
64499;SHT31;51087;55.718;21.122;2022-10-16T05:25:16;12.93;99.99
64499;SHT31;51087;55.718;21.122;2022-10-16T05:27:41;12.99;99.99
64499;SHT31;51087;55.718;21.122;2022-10-16T05:30:07;12.98;99.99
64499;SHT31;51087;55.718;21.122;2022-10-16T05:32:32;13.01;99.99
64499;SHT31;51087;55.718;21.122;2022-10-16T05:34:58;13.02;99.99
64499;SHT31;51087;55.718;21.122;2022-10-16T05:37:25;13.06;99.99
64499;SHT31;51087;55.718;21.122;2022-10-16T05:39:52;13.09;99.99
64499;SHT31;51087;55.718;21.122;2022-10-16T05:42:17;13.12;99.99
64499;SHT31;51087;55.718;21.122;2022-10-16T05:44:43;13.15;99.99
64499;SHT31;51087;55.718;21.122;2022-10-16T05:47:08;13.20;99.99
64499;SHT31;51087;55.718;21.122;2022-10-16T05:49:35;13.24;99.99
64499;SHT31;51087;55.718;21.122;2022-10-16T05:52:01;13.27;99.99
64499;SHT31;51087;55.718;21.122;2022-10-16T05:54:26;13.35;99.99
64499;SHT31;51087;55.718;21.122;2022-10-16T05:56:52;13.30;99.97
64499;SHT31;51087;55.718;21.122;2022-10-16T05:59:17;13.33;99.97
64499;SHT31;51087;55.718;21.122;2022-10-16T06:01:43;13.36;99.86
64499;SHT31;51087;55.718;21.122;2022-10-16T06:04:09;13.36;99.88
64499;SHT31;51087;55.718;21.122;2022-10-16T06:06:34;13.43;99.68
64499;SHT31;51087;55.718;21.122;2022-10-16T06:09:02;13.47;99.67
64499;SHT31;51087;55.718;21.122;2022-10-16T06:11:29;13.51;99.49
64499;SHT31;51087;55.718;21.122;2022-10-16T06:13:57;13.54;99.35
64499;SHT31;51087;55.718;21.122;2022-10-16T06:16:26;13.47;99.28
64499;SHT31;51087;55.718;21.122;2022-10-16T06:18:52;13.46;99.30
64499;SHT31;51087;55.718;21.122;2022-10-16T06:21:20;13.54;99.23
64499;SHT31;51087;55.718;21.122;2022-10-16T06:23:47;13.57;99.35
64499;SHT31;51087;55.718;21.122;2022-10-16T06:26:15;13.58;99.17
64499;SHT31;51087;55.718;21.122;2022-10-16T06:28:41;13.63;99.01
64499;SHT31;51087;55.718;21.122;2022-10-16T06:31:07;13.66;98.63
64499;SHT31;51087;55.718;21.122;2022-10-16T06:33:34;13.60;98.70
64499;SHT31;51087;55.718;21.122;2022-10-16T06:36:07;13.58;98.56
64499;SHT31;51087;55.718;21.122;2022-10-16T06:38:33;13.54;98.68
64499;SHT31;51087;55.718;21.122;2022-10-16T06:40:59;13.51;98.72
64499;SHT31;51087;55.718;21.122;2022-10-16T06:43:25;13.50;98.58
64499;SHT31;51087;55.718;21.122;2022-10-16T06:45:54;13.53;98.68
64499;SHT31;51087;55.718;21.122;2022-10-16T06:48:20;13.54;98.62
64499;SHT31;51087;55.718;21.122;2022-10-16T06:50:59;13.50;98.46
64499;SHT31;51087;55.718;21.122;2022-10-16T06:53:26;13.57;98.41
64499;SHT31;51087;55.718;21.122;2022-10-16T06:55:52;13.54;98.41
64499;SHT31;51087;55.718;21.122;2022-10-16T06:58:18;13.51;98.42
64499;SHT31;51087;55.718;21.122;2022-10-16T07:00:43;13.53;98.39
64499;SHT31;51087;55.718;21.122;2022-10-16T07:03:09;13.51;98.49
64499;SHT31;51087;55.718;21.122;2022-10-16T07:05:39;13.51;98.40
64499;SHT31;51087;55.718;21.122;2022-10-16T07:08:05;13.51;98.30
64499;SHT31;51087;55.718;21.122;2022-10-16T07:10:31;13.51;98.31
64499;SHT31;51087;55.718;21.122;2022-10-16T07:12:56;13.51;98.36
64499;SHT31;51087;55.718;21.122;2022-10-16T07:15:22;13.53;98.38
64499;SHT31;51087;55.718;21.122;2022-10-16T07:17:47;13.50;98.33
64499;SHT31;51087;55.718;21.122;2022-10-16T07:20:13;13.50;98.49
64499;SHT31;51087;55.718;21.122;2022-10-16T07:22:38;13.47;98.47
64499;SHT31;51087;55.718;21.122;2022-10-16T07:25:04;13.48;98.38
64499;SHT31;51087;55.718;21.122;2022-10-16T07:27:30;13.48;98.66
64499;SHT31;51087;55.718;21.122;2022-10-16T07:29:55;13.51;98.40
64499;SHT31;51087;55.718;21.122;2022-10-16T07:32:21;13.54;98.46
64499;SHT31;51087;55.718;21.122;2022-10-16T07:34:46;13.56;98.39
64499;SHT31;51087;55.718;21.122;2022-10-16T07:37:11;13.64;98.32
64499;SHT31;51087;55.718;21.122;2022-10-16T07:39:37;13.64;98.15
64499;SHT31;51087;55.718;21.122;2022-10-16T07:42:02;13.75;97.69
64499;SHT31;51087;55.718;21.122;2022-10-16T07:44:28;13.75;97.67
64499;SHT31;51087;55.718;21.122;2022-10-16T07:46:53;13.78;97.59
64499;SHT31;51087;55.718;21.122;2022-10-16T07:49:19;13.84;97.39
64499;SHT31;51087;55.718;21.122;2022-10-16T07:51:44;13.79;97.47
64499;SHT31;51087;55.718;21.122;2022-10-16T07:54:10;13.81;97.40
64499;SHT31;51087;55.718;21.122;2022-10-16T07:56:35;13.79;97.49
64499;SHT31;51087;55.718;21.122;2022-10-16T07:59:00;13.86;97.24
64499;SHT31;51087;55.718;21.122;2022-10-16T08:01:26;13.85;97.20
64499;SHT31;51087;55.718;21.122;2022-10-16T08:03:52;13.88;97.15
64499;SHT31;51087;55.718;21.122;2022-10-16T08:06:19;13.86;97.10
64499;SHT31;51087;55.718;21.122;2022-10-16T08:08:45;13.85;97.21
64499;SHT31;51087;55.718;21.122;2022-10-16T08:11:10;13.88;97.23
64499;SHT31;51087;55.718;21.122;2022-10-16T08:13:36;13.85;97.28
64499;SHT31;51087;55.718;21.122;2022-10-16T08:16:02;13.98;97.09
64499;SHT31;51087;55.718;21.122;2022-10-16T08:18:34;13.94;97.12
64499;SHT31;51087;55.718;21.122;2022-10-16T08:21:00;14.01;96.91
64499;SHT31;51087;55.718;21.122;2022-10-16T08:23:26;13.98;96.89
64499;SHT31;51087;55.718;21.122;2022-10-16T08:25:53;13.98;96.87
64499;SHT31;51087;55.718;21.122;2022-10-16T08:28:19;14.01;96.80
64499;SHT31;51087;55.718;21.122;2022-10-16T08:30:45;14.09;96.56
64499;SHT31;51087;55.718;21.122;2022-10-16T08:33:10;14.21;96.29
64499;SHT31;51087;55.718;21.122;2022-10-16T08:35:36;14.29;95.71
64499;SHT31;51087;55.718;21.122;2022-10-16T08:38:05;14.33;95.64
64499;SHT31;51087;55.718;21.122;2022-10-16T08:40:33;14.37;95.52
64499;SHT31;51087;55.718;21.122;2022-10-16T08:48:27;14.13;96.21
64499;SHT31;51087;55.718;21.122;2022-10-16T08:50:55;14.13;96.23
64499;SHT31;51087;55.718;21.122;2022-10-16T08:53:28;14.11;96.40
64499;SHT31;51087;55.718;21.122;2022-10-16T08:55:55;14.04;96.69
64499;SHT31;51087;55.718;21.122;2022-10-16T08:58:23;14.04;96.76
64499;SHT31;51087;55.718;21.122;2022-10-16T09:00:56;14.02;96.89
64499;SHT31;51087;55.718;21.122;2022-10-16T09:06:29;14.04;96.92
64499;SHT31;51087;55.718;21.122;2022-10-16T09:11:49;14.16;96.81
64499;SHT31;51087;55.718;21.122;2022-10-16T09:22:36;14.40;95.92
64499;SHT31;51087;55.718;21.122;2022-10-16T09:25:11;14.41;95.67
64499;SHT31;51087;55.718;21.122;2022-10-16T09:27:37;14.46;95.61
64499;SHT31;51087;55.718;21.122;2022-10-16T09:30:17;14.51;95.38
64499;SHT31;51087;55.718;21.122;2022-10-16T09:32:46;14.55;95.45
64499;SHT31;51087;55.718;21.122;2022-10-16T09:35:16;14.56;95.20
64499;SHT31;51087;55.718;21.122;2022-10-16T09:37:44;14.64;95.24
64499;SHT31;51087;55.718;21.122;2022-10-16T09:40:37;14.67;94.98
64499;SHT31;51087;55.718;21.122;2022-10-16T09:46:07;14.76;94.93
64499;SHT31;51087;55.718;21.122;2022-10-16T09:48:46;14.78;94.85
64499;SHT31;51087;55.718;21.122;2022-10-16T09:51:36;14.74;95.14
64499;SHT31;51087;55.718;21.122;2022-10-16T09:56:35;14.74;95.18
64499;SHT31;51087;55.718;21.122;2022-10-16T09:59:21;14.66;95.21
64499;SHT31;51087;55.718;21.122;2022-10-16T10:01:53;14.59;95.87
64499;SHT31;51087;55.718;21.122;2022-10-16T10:04:22;14.49;95.85
64499;SHT31;51087;55.718;21.122;2022-10-16T10:06:55;14.51;96.40
64499;SHT31;51087;55.718;21.122;2022-10-16T10:09:37;14.53;96.59
64499;SHT31;51087;55.718;21.122;2022-10-16T10:12:05;14.55;96.59
64499;SHT31;51087;55.718;21.122;2022-10-16T10:14:34;14.46;96.57
64499;SHT31;51087;55.718;21.122;2022-10-16T10:17:13;14.40;96.73
64499;SHT31;51087;55.718;21.122;2022-10-16T10:19:59;14.34;96.76
64499;SHT31;51087;55.718;21.122;2022-10-16T10:22:44;14.40;96.78
64499;SHT31;51087;55.718;21.122;2022-10-16T10:30:25;14.61;96.49
64499;SHT31;51087;55.718;21.122;2022-10-16T10:38:39;14.84;95.52
64499;SHT31;51087;55.718;21.122;2022-10-16T10:46:42;14.84;95.38
64499;SHT31;51087;55.718;21.122;2022-10-16T10:52:38;14.81;95.51
64499;SHT31;51087;55.718;21.122;2022-10-16T10:58:07;14.78;95.67
64499;SHT31;51087;55.718;21.122;2022-10-16T11:00:57;14.73;95.81
64499;SHT31;51087;55.718;21.122;2022-10-16T11:06:10;14.66;96.19
64499;SHT31;51087;55.718;21.122;2022-10-16T11:08:41;14.56;96.26
64499;SHT31;51087;55.718;21.122;2022-10-16T11:11:17;14.56;96.46
64499;SHT31;51087;55.718;21.122;2022-10-16T11:13:55;14.46;96.78
64499;SHT31;51087;55.718;21.122;2022-10-16T11:16:27;14.47;96.90
64499;SHT31;51087;55.718;21.122;2022-10-16T11:21:39;14.43;97.05
64499;SHT31;51087;55.718;21.122;2022-10-16T11:24:22;14.43;97.17
64499;SHT31;51087;55.718;21.122;2022-10-16T11:26:50;14.40;97.38
64499;SHT31;51087;55.718;21.122;2022-10-16T11:29:30;14.39;97.56
64499;SHT31;51087;55.718;21.122;2022-10-16T11:32:01;14.36;97.79
64499;SHT31;51087;55.718;21.122;2022-10-16T11:34:38;14.39;97.92
64499;SHT31;51087;55.718;21.122;2022-10-16T11:37:21;14.34;98.49
64499;SHT31;51087;55.718;21.122;2022-10-16T11:39:50;14.30;98.94
64499;SHT31;51087;55.718;21.122;2022-10-16T11:42:40;14.26;99.37
64499;SHT31;51087;55.718;21.122;2022-10-16T11:47:41;14.25;99.75
64499;SHT31;51087;55.718;21.122;2022-10-16T11:53:18;14.19;99.99
64499;SHT31;51087;55.718;21.122;2022-10-16T11:55:46;14.16;99.99
64499;SHT31;51087;55.718;21.122;2022-10-16T11:58:17;14.22;99.99
64499;SHT31;51087;55.718;21.122;2022-10-16T12:00:56;14.11;99.99
64499;SHT31;51087;55.718;21.122;2022-10-16T12:03:31;14.11;99.99
64499;SHT31;51087;55.718;21.122;2022-10-16T12:08:28;14.00;99.99
64499;SHT31;51087;55.718;21.122;2022-10-16T12:10:54;14.00;99.99
64499;SHT31;51087;55.718;21.122;2022-10-16T12:13:36;14.01;99.99
64499;SHT31;51087;55.718;21.122;2022-10-16T12:18:42;14.02;99.99
64499;SHT31;51087;55.718;21.122;2022-10-16T12:21:09;14.01;99.99
64499;SHT31;51087;55.718;21.122;2022-10-16T12:23:46;14.02;99.99
64499;SHT31;51087;55.718;21.122;2022-10-16T12:26:12;14.01;99.99
64499;SHT31;51087;55.718;21.122;2022-10-16T12:28:38;14.00;99.99
64499;SHT31;51087;55.718;21.122;2022-10-16T12:31:09;14.04;99.99
64499;SHT31;51087;55.718;21.122;2022-10-16T12:33:36;14.02;99.99
64499;SHT31;51087;55.718;21.122;2022-10-16T12:36:04;14.05;99.99
64499;SHT31;51087;55.718;21.122;2022-10-16T12:38:46;14.11;99.99
64499;SHT31;51087;55.718;21.122;2022-10-16T12:41:12;14.08;99.99
64499;SHT31;51087;55.718;21.122;2022-10-16T12:43:46;14.11;99.99
64499;SHT31;51087;55.718;21.122;2022-10-16T12:48:39;14.09;99.99
64499;SHT31;51087;55.718;21.122;2022-10-16T12:51:44;14.11;99.99
64499;SHT31;51087;55.718;21.122;2022-10-16T12:54:23;14.13;99.99
64499;SHT31;51087;55.718;21.122;2022-10-16T13:17:07;14.25;99.99
64499;SHT31;51087;55.718;21.122;2022-10-16T13:22:35;14.19;99.99
64499;SHT31;51087;55.718;21.122;2022-10-16T13:25:40;14.22;99.99
64499;SHT31;51087;55.718;21.122;2022-10-16T13:28:11;14.26;99.99
64499;SHT31;51087;55.718;21.122;2022-10-16T13:30:43;14.30;99.99
64499;SHT31;51087;55.718;21.122;2022-10-16T13:33:35;14.29;99.99
64499;SHT31;51087;55.718;21.122;2022-10-16T13:36:02;14.34;99.99
64499;SHT31;51087;55.718;21.122;2022-10-16T13:38:34;14.39;99.99
64499;SHT31;51087;55.718;21.122;2022-10-16T13:41:02;14.39;99.99
64499;SHT31;51087;55.718;21.122;2022-10-16T13:43:51;14.40;99.99
64499;SHT31;51087;55.718;21.122;2022-10-16T13:46:22;14.39;99.99
64499;SHT31;51087;55.718;21.122;2022-10-16T13:49:02;14.40;99.99
64499;SHT31;51087;55.718;21.122;2022-10-16T13:51:28;14.36;99.99
64499;SHT31;51087;55.718;21.122;2022-10-16T13:53:57;14.36;99.99
64499;SHT31;51087;55.718;21.122;2022-10-16T13:56:26;14.32;99.99
64499;SHT31;51087;55.718;21.122;2022-10-16T13:59:06;14.34;99.99
64499;SHT31;51087;55.718;21.122;2022-10-16T14:01:46;14.34;99.99
64499;SHT31;51087;55.718;21.122;2022-10-16T14:04:13;14.37;99.99
64499;SHT31;51087;55.718;21.122;2022-10-16T14:06:46;14.34;99.99
64499;SHT31;51087;55.718;21.122;2022-10-16T14:09:25;14.41;99.99
64499;SHT31;51087;55.718;21.122;2022-10-16T14:14:22;14.39;99.99
64499;SHT31;51087;55.718;21.122;2022-10-16T14:16:48;14.39;99.99
64499;SHT31;51087;55.718;21.122;2022-10-16T14:19:28;14.41;99.99
64499;SHT31;51087;55.718;21.122;2022-10-16T14:21:55;14.44;99.99
64499;SHT31;51087;55.718;21.122;2022-10-16T14:24:27;14.37;99.99
64499;SHT31;51087;55.718;21.122;2022-10-16T14:26:52;14.33;99.99
64499;SHT31;51087;55.718;21.122;2022-10-16T14:29:22;14.32;99.99
64499;SHT31;51087;55.718;21.122;2022-10-16T14:32:01;14.30;99.99
64499;SHT31;51087;55.718;21.122;2022-10-16T14:36:55;14.36;99.99
64499;SHT31;51087;55.718;21.122;2022-10-16T14:39:22;14.40;99.99
64499;SHT31;51087;55.718;21.122;2022-10-16T14:41:49;14.40;99.99
64499;SHT31;51087;55.718;21.122;2022-10-16T14:44:17;14.39;99.99
64499;SHT31;51087;55.718;21.122;2022-10-16T14:46:44;14.43;99.99
64499;SHT31;51087;55.718;21.122;2022-10-16T14:51:36;14.49;99.99
64499;SHT31;51087;55.718;21.122;2022-10-16T14:54:02;14.47;99.99
64499;SHT31;51087;55.718;21.122;2022-10-16T14:56:42;14.55;99.99
64499;SHT31;51087;55.718;21.122;2022-10-16T14:59:15;14.55;99.99
64499;SHT31;51087;55.718;21.122;2022-10-16T15:01:43;14.51;99.99
64499;SHT31;51087;55.718;21.122;2022-10-16T15:04:11;14.55;99.99
64499;SHT31;51087;55.718;21.122;2022-10-16T15:06:37;14.49;99.99
64499;SHT31;51087;55.718;21.122;2022-10-16T15:09:03;14.47;99.99
64499;SHT31;51087;55.718;21.122;2022-10-16T15:11:29;14.43;99.99
64499;SHT31;51087;55.718;21.122;2022-10-16T15:13:56;14.41;99.99
64499;SHT31;51087;55.718;21.122;2022-10-16T15:16:21;14.39;99.99
64499;SHT31;51087;55.718;21.122;2022-10-16T15:18:47;14.37;99.99
64499;SHT31;51087;55.718;21.122;2022-10-16T15:21:33;14.29;99.99
64499;SHT31;51087;55.718;21.122;2022-10-16T15:23:59;14.26;99.99
64499;SHT31;51087;55.718;21.122;2022-10-16T15:26:26;14.22;99.99
64499;SHT31;51087;55.718;21.122;2022-10-16T15:28:52;14.25;99.99
64499;SHT31;51087;55.718;21.122;2022-10-16T15:31:18;14.25;99.99
64499;SHT31;51087;55.718;21.122;2022-10-16T15:33:44;14.23;99.99
64499;SHT31;51087;55.718;21.122;2022-10-16T15:36:13;14.28;99.99
64499;SHT31;51087;55.718;21.122;2022-10-16T15:38:38;14.25;99.99
64499;SHT31;51087;55.718;21.122;2022-10-16T15:41:04;14.16;99.99
64499;SHT31;51087;55.718;21.122;2022-10-16T15:43:29;14.13;99.99
64499;SHT31;51087;55.718;21.122;2022-10-16T15:46:06;14.09;99.99
64499;SHT31;51087;55.718;21.122;2022-10-16T15:48:33;14.02;99.99
64499;SHT31;51087;55.718;21.122;2022-10-16T15:51:07;14.08;99.99
64499;SHT31;51087;55.718;21.122;2022-10-16T15:53:33;13.97;99.99
64499;SHT31;51087;55.718;21.122;2022-10-16T15:56:09;13.97;99.99
64499;SHT31;51087;55.718;21.122;2022-10-16T15:58:35;13.92;99.99
64499;SHT31;51087;55.718;21.122;2022-10-16T16:01:01;13.86;99.99
64499;SHT31;51087;55.718;21.122;2022-10-16T16:03:28;13.86;99.99
64499;SHT31;51087;55.718;21.122;2022-10-16T16:05:54;13.86;99.99
64499;SHT31;51087;55.718;21.122;2022-10-16T16:08:20;13.89;99.99
64499;SHT31;51087;55.718;21.122;2022-10-16T16:10:57;13.84;99.99
64499;SHT31;51087;55.718;21.122;2022-10-16T16:13:22;13.86;99.99
64499;SHT31;51087;55.718;21.122;2022-10-16T16:15:48;13.85;99.99
64499;SHT31;51087;55.718;21.122;2022-10-16T16:18:13;13.92;99.99
64499;SHT31;51087;55.718;21.122;2022-10-16T16:20:39;13.95;99.99
64499;SHT31;51087;55.718;21.122;2022-10-16T16:23:04;13.92;99.99
64499;SHT31;51087;55.718;21.122;2022-10-16T16:25:29;13.98;99.99
64499;SHT31;51087;55.718;21.122;2022-10-16T16:27:55;13.98;99.99
64499;SHT31;51087;55.718;21.122;2022-10-16T16:30:21;14.01;99.99
64499;SHT31;51087;55.718;21.122;2022-10-16T16:32:46;13.98;99.99
64499;SHT31;51087;55.718;21.122;2022-10-16T16:35:12;14.04;99.99
64499;SHT31;51087;55.718;21.122;2022-10-16T16:37:37;14.06;99.99
64499;SHT31;51087;55.718;21.122;2022-10-16T16:40:03;14.06;99.99
64499;SHT31;51087;55.718;21.122;2022-10-16T16:42:28;14.04;99.99
64499;SHT31;51087;55.718;21.122;2022-10-16T16:44:54;14.05;99.99
64499;SHT31;51087;55.718;21.122;2022-10-16T16:47:19;14.04;99.99
64499;SHT31;51087;55.718;21.122;2022-10-16T16:49:45;14.01;99.99
64499;SHT31;51087;55.718;21.122;2022-10-16T16:52:12;13.98;99.99
64499;SHT31;51087;55.718;21.122;2022-10-16T16:54:37;14.01;99.99
64499;SHT31;51087;55.718;21.122;2022-10-16T16:57:02;14.02;99.99
64499;SHT31;51087;55.718;21.122;2022-10-16T16:59:29;14.11;99.99
64499;SHT31;51087;55.718;21.122;2022-10-16T17:02:00;14.13;99.99
64499;SHT31;51087;55.718;21.122;2022-10-16T17:04:26;14.13;99.99
64499;SHT31;51087;55.718;21.122;2022-10-16T17:06:55;14.19;99.99
64499;SHT31;51087;55.718;21.122;2022-10-16T17:09:21;14.13;99.99
64499;SHT31;51087;55.718;21.122;2022-10-16T17:11:46;14.18;99.99
64499;SHT31;51087;55.718;21.122;2022-10-16T17:14:14;14.12;99.99